Park Hills, Kentucky
Current Conditions -  °F | °C
As of 4:35 PM on Friday 24 Oct 2014 (Local Time) from KI69 Reporting Station
Clear Clear  
Wind Chill: 64°   Ceiling: Unl
Heat Index: 64°   Visibility: 10mi
Dew Point: 37°   Wind: 5mph
Humidity: 37%   Direction: 270°W
Pressure: 30.03"   Gusts: NA
Location:  39.0659°N, 84.5309°W
Report Text: KI69 242035Z AUTO 27004KT 10SM CLR 18/03 A3003 RMK AO1
Loading
Personal Weather Stations






























Interactive Weather Map New forecast layout! Learn more

10-Day Weather Forecast

Advertisements
Track Severe Weather on mobile